Terminal Aerodrome Forecast
Issued by NWS Portland, OR

Home | Current Version | Previous Version | Text Only | Print | Product List | Glossary On
Versions: 1 2 3 4 5 6 7 8 9 10 11 12 13 14 15
000
FTUS46 KPQR 261503 AAA
TAFEUG
TAF AMD
KEUG 261503Z 2615/2712 VRB03KT P6SM SKC
     FM261700 36007KT P6SM SKC
     FM262100 36009KT P6SM FEW050
     FM270400 VRB03KT P6SM SKC=

USA.gov is the U.S. government's official web portal to all federal, state and local government web resources and services.